createdAt,value
2023-02-13T00:00:17.982Z,3.15
2023-02-13T00:02:45.101Z,3.34
2023-02-13T00:05:12.261Z,3.34
2023-02-13T00:07:38.819Z,3.33
2023-02-13T00:10:06.072Z,3.32
2023-02-13T00:12:32.682Z,3.00
2023-02-13T00:15:00.284Z,3.23
2023-02-13T00:17:27.313Z,3.33
2023-02-13T00:19:54.049Z,2.86
2023-02-13T00:22:20.883Z,1.94
2023-02-13T00:24:47.548Z,2.69
2023-02-13T00:27:14.161Z,2.85
2023-02-13T00:29:40.856Z,2.62
2023-02-13T00:32:07.774Z,2.60
2023-02-13T00:34:34.644Z,2.85
2023-02-13T00:37:01.211Z,2.99
2023-02-13T00:39:27.943Z,2.86
2023-02-13T00:41:54.592Z,2.30
2023-02-13T00:44:21.212Z,2.44
2023-02-13T00:46:47.905Z,2.63
2023-02-13T00:49:14.581Z,2.76
2023-02-13T00:51:41.208Z,3.01
2023-02-13T00:54:07.790Z,2.89
2023-02-13T00:56:34.392Z,2.72
2023-02-13T00:59:01.050Z,2.69
2023-02-13T01:01:27.721Z,2.65
2023-02-13T01:03:54.385Z,3.00
2023-02-13T01:06:21.016Z,3.12
2023-02-13T01:08:47.572Z,3.17
2023-02-13T01:11:14.204Z,2.91
2023-02-13T01:13:40.908Z,3.11
2023-02-13T01:16:07.775Z,2.87
2023-02-13T01:18:34.404Z,2.60
2023-02-13T01:21:04.038Z,2.87
2023-02-13T01:23:32.634Z,2.93
2023-02-13T01:25:59.756Z,2.87
2023-02-13T01:28:26.896Z,2.79
2023-02-13T01:30:55.586Z,3.01
2023-02-13T01:33:24.084Z,3.04
2023-02-13T01:35:51.340Z,2.80
2023-02-13T01:38:18.326Z,3.04
2023-02-13T01:40:50.126Z,3.00
2023-02-13T01:43:17.018Z,3.18
2023-02-13T01:45:47.028Z,3.29
2023-02-13T01:48:18.290Z,3.24
2023-02-13T01:51:11.746Z,3.32
2023-02-13T01:53:45.965Z,3.27
2023-02-13T01:56:24.076Z,3.35
2023-02-13T01:58:54.473Z,3.07
2023-02-13T02:01:23.393Z,3.26
2023-02-13T02:03:59.813Z,3.36
2023-02-13T02:06:35.928Z,3.11
2023-02-13T02:09:08.136Z,3.43
2023-02-13T02:11:41.584Z,3.37
2023-02-13T02:14:08.640Z,3.57
2023-02-13T02:16:36.043Z,3.55
2023-02-13T02:19:05.888Z,3.51
2023-02-13T02:22:00.883Z,3.32
2023-02-13T02:24:49.619Z,3.45
2023-02-13T02:27:51.685Z,3.51
2023-02-13T02:30:46.049Z,3.51
2023-02-13T02:33:12.683Z,3.68
2023-02-13T02:36:14.279Z,3.70
2023-02-13T02:38:49.837Z,3.53
2023-02-13T02:41:42.097Z,3.78
2023-02-13T02:44:36.528Z,2.60
2023-02-13T02:47:27.609Z,2.59
2023-02-13T02:50:12.324Z,2.37
2023-02-13T02:53:09.514Z,2.81
2023-02-13T02:55:39.944Z,3.13
2023-02-13T02:58:47.566Z,3.26
2023-02-13T03:01:36.941Z,3.05
2023-02-13T03:04:23.418Z,3.54
2023-02-13T03:06:56.535Z,3.50
2023-02-13T03:09:50.076Z,3.32
2023-02-13T03:12:41.472Z,3.46
2023-02-13T03:15:09.843Z,3.63
2023-02-13T03:17:55.817Z,3.53
2023-02-13T03:21:13.570Z,3.07
2023-02-13T03:24:07.921Z,3.23
2023-02-13T03:27:02.201Z,3.18
2023-02-13T03:29:59.159Z,3.25
2023-02-13T03:32:51.651Z,3.02
2023-02-13T03:35:58.145Z,3.29
2023-02-13T03:38:32.630Z,2.81
2023-02-13T03:41:19.937Z,2.84
2023-02-13T03:43:49.300Z,2.89
2023-02-13T03:46:17.832Z,3.09
2023-02-13T03:49:18.667Z,3.13
2023-02-13T03:52:03.584Z,3.00
2023-02-13T03:54:56.153Z,2.63
2023-02-13T03:57:44.159Z,2.55
2023-02-13T04:00:13.794Z,2.12
2023-02-13T04:02:50.275Z,2.65
2023-02-13T04:05:21.490Z,2.98
2023-02-13T04:07:49.228Z,2.86
2023-02-13T04:10:17.281Z,2.48
2023-02-13T04:12:49.903Z,2.61
2023-02-13T04:15:21.803Z,2.55
2023-02-13T04:18:04.556Z,2.83
2023-02-13T04:20:34.212Z,2.63
2023-02-13T04:23:08.554Z,2.48
2023-02-13T04:25:37.822Z,2.95
2023-02-13T04:28:05.056Z,2.73
2023-02-13T04:30:31.806Z,3.11
2023-02-13T04:32:58.759Z,2.98
2023-02-13T04:35:25.570Z,3.04
2023-02-13T04:37:52.648Z,2.98
2023-02-13T04:40:19.372Z,2.54
2023-02-13T04:42:48.925Z,3.29
2023-02-13T04:45:16.202Z,3.09
2023-02-13T04:47:43.515Z,3.26
2023-02-13T04:50:10.460Z,3.34
2023-02-13T04:52:37.182Z,3.32
2023-02-13T04:55:04.122Z,3.00
2023-02-13T04:57:30.756Z,3.32
2023-02-13T04:59:57.395Z,2.60
2023-02-13T05:02:24.069Z,2.96
2023-02-13T05:04:50.757Z,3.17
2023-02-13T05:07:17.457Z,2.83
2023-02-13T05:09:44.057Z,3.24
2023-02-13T05:12:10.698Z,2.91
2023-02-13T05:14:37.393Z,3.07
2023-02-13T05:17:04.003Z,3.37
2023-02-13T05:19:30.620Z,3.36
2023-02-13T05:22:16.170Z,3.34
2023-02-13T05:24:42.807Z,3.08
2023-02-13T05:27:09.445Z,3.34
2023-02-13T05:29:36.062Z,3.53
2023-02-13T05:32:02.826Z,3.38
2023-02-13T05:34:29.883Z,3.55
2023-02-13T05:36:56.667Z,3.47
2023-02-13T05:39:23.462Z,2.88
2023-02-13T05:41:50.608Z,2.40
2023-02-13T05:44:17.575Z,2.56
2023-02-13T05:46:45.051Z,2.96
2023-02-13T05:49:13.885Z,2.57
2023-02-13T05:51:40.718Z,2.44
2023-02-13T05:54:07.291Z,2.54
2023-02-13T05:56:33.898Z,2.71
2023-02-13T05:59:00.589Z,2.91
2023-02-13T06:01:27.217Z,2.24
2023-02-13T06:03:53.911Z,2.62
2023-02-13T06:06:21.385Z,2.86
2023-02-13T06:08:48.186Z,3.20
2023-02-13T06:11:14.774Z,3.08
2023-02-13T06:13:41.394Z,3.21
2023-02-13T06:16:09.674Z,2.75
2023-02-13T06:18:36.704Z,2.87
2023-02-13T06:21:03.803Z,3.19
2023-02-13T06:23:30.459Z,3.27
2023-02-13T06:25:57.328Z,3.02
2023-02-13T06:28:23.980Z,3.02
2023-02-13T06:30:50.824Z,2.80
2023-02-13T06:33:17.537Z,3.05
2023-02-13T06:35:44.144Z,3.27
2023-02-13T06:38:10.766Z,2.94
2023-02-13T06:40:37.325Z,2.98
2023-02-13T06:43:04.032Z,3.40
2023-02-13T06:45:30.726Z,3.23
2023-02-13T06:47:57.483Z,2.52
2023-02-13T06:50:24.347Z,2.56
2023-02-13T06:52:52.398Z,2.85
2023-02-13T06:55:19.193Z,2.95
2023-02-13T06:57:46.383Z,2.88
2023-02-13T07:00:15.015Z,2.72
2023-02-13T07:02:43.327Z,2.81
2023-02-13T07:05:11.581Z,2.47
2023-02-13T07:07:40.513Z,2.83
2023-02-13T07:10:10.794Z,3.27
2023-02-13T07:12:37.601Z,3.23
2023-02-13T07:15:05.339Z,3.12
2023-02-13T07:17:32.404Z,3.31
2023-02-13T07:19:59.077Z,3.01
2023-02-13T07:22:25.731Z,3.12
2023-02-13T07:24:52.339Z,3.02
2023-02-13T07:27:19.019Z,2.86
2023-02-13T07:29:45.568Z,2.06
2023-02-13T07:32:12.291Z,2.87
2023-02-13T07:34:41.195Z,2.70
2023-02-13T07:37:13.168Z,2.56
2023-02-13T07:39:39.871Z,2.62
2023-02-13T07:42:06.625Z,2.58
2023-02-13T07:44:33.510Z,2.28
2023-02-13T07:47:01.292Z,2.61
2023-02-13T07:49:28.063Z,3.43
2023-02-13T07:51:58.052Z,2.58
2023-02-13T07:54:24.955Z,3.18
2023-02-13T07:56:51.670Z,3.35
2023-02-13T07:59:18.330Z,2.98
2023-02-13T08:01:44.984Z,3.12
2023-02-13T08:04:11.704Z,3.15
2023-02-13T08:06:42.209Z,3.06
2023-02-13T08:09:38.861Z,3.30
2023-02-13T08:12:08.714Z,3.89
2023-02-13T08:14:35.518Z,3.40
2023-02-13T08:17:02.284Z,3.18
2023-02-13T08:19:29.467Z,2.75
2023-02-13T08:21:56.515Z,3.81
2023-02-13T08:24:23.241Z,3.55
2023-02-13T08:26:49.874Z,2.90
2023-02-13T08:29:16.851Z,3.34
2023-02-13T08:31:43.889Z,3.51
2023-02-13T08:34:10.947Z,3.57
2023-02-13T08:36:37.639Z,3.58
2023-02-13T08:39:04.426Z,3.30
2023-02-13T08:41:31.060Z,3.22
2023-02-13T08:43:57.712Z,3.35
2023-02-13T08:46:24.385Z,4.04
2023-02-13T08:48:51.051Z,4.05
2023-02-13T08:51:17.641Z,3.46
2023-02-13T08:53:44.336Z,3.72
2023-02-13T08:56:11.534Z,3.77
2023-02-13T08:58:38.578Z,3.34
2023-02-13T09:01:07.074Z,3.80
2023-02-13T09:03:34.697Z,4.10
2023-02-13T09:06:02.531Z,3.55
2023-02-13T09:08:29.173Z,3.75
2023-02-13T09:11:01.417Z,3.57
2023-02-13T09:13:33.661Z,4.38
2023-02-13T09:16:02.471Z,4.28
2023-02-13T09:18:29.237Z,3.84
2023-02-13T09:21:07.149Z,3.81
2023-02-13T09:23:35.971Z,4.16
2023-02-13T09:26:04.468Z,4.23
2023-02-13T09:28:32.997Z,4.39
2023-02-13T09:30:59.727Z,4.07
2023-02-13T09:33:26.890Z,4.01
2023-02-13T09:35:53.471Z,4.16
2023-02-13T09:38:20.103Z,3.90
2023-02-13T09:40:56.276Z,4.44
2023-02-13T09:43:38.485Z,5.17
2023-02-13T09:46:14.644Z,4.61
2023-02-13T09:48:45.539Z,4.40
2023-02-13T09:51:18.349Z,4.12
2023-02-13T09:53:58.032Z,4.02
2023-02-13T09:56:49.558Z,4.76
2023-02-13T09:59:42.163Z,4.29
2023-02-13T10:02:47.637Z,3.32
2023-02-13T10:05:32.049Z,3.53
2023-02-13T10:08:14.445Z,3.33
2023-02-13T10:10:57.855Z,3.93
2023-02-13T10:13:47.653Z,4.20
2023-02-13T10:16:27.390Z,4.23
2023-02-13T10:19:00.475Z,3.97
2023-02-13T10:21:34.240Z,4.02
2023-02-13T10:24:12.631Z,4.68
2023-02-13T10:26:43.452Z,5.00
2023-02-13T10:29:33.112Z,4.67
2023-02-13T10:32:04.210Z,4.76
2023-02-13T10:34:38.722Z,4.76
2023-02-13T10:37:13.989Z,4.52
2023-02-13T10:39:42.184Z,4.36
2023-02-13T10:42:22.996Z,4.20
2023-02-13T10:44:58.626Z,4.76
2023-02-13T10:47:37.496Z,4.75
2023-02-13T10:50:32.134Z,5.11
2023-02-13T10:53:08.196Z,5.22
2023-02-13T10:55:54.492Z,5.58
2023-02-13T10:58:26.063Z,5.75
2023-02-13T11:01:40.260Z,5.73
2023-02-13T11:04:12.778Z,5.05
2023-02-13T11:06:49.284Z,5.52
2023-02-13T11:09:15.854Z,5.43
2023-02-13T11:11:43.949Z,4.63
2023-02-13T11:14:16.712Z,5.32
2023-02-13T11:17:18.484Z,5.52
2023-02-13T11:19:54.181Z,5.80
2023-02-13T11:22:42.777Z,5.25
2023-02-13T11:25:26.255Z,5.57
2023-02-13T11:28:09.233Z,5.90
2023-02-13T11:30:37.784Z,5.74
2023-02-13T11:33:17.678Z,5.96
2023-02-13T11:35:46.601Z,5.83
2023-02-13T11:38:15.789Z,6.40
2023-02-13T11:41:05.638Z,6.14
2023-02-13T11:43:48.537Z,6.05
2023-02-13T11:46:20.465Z,5.91
2023-02-13T11:49:21.344Z,6.01
2023-02-13T11:51:54.180Z,5.49
2023-02-13T11:54:44.307Z,5.88
2023-02-13T11:57:19.914Z,6.31
2023-02-13T11:59:49.687Z,6.61
2023-02-13T12:02:19.572Z,6.92
2023-02-13T12:04:47.657Z,6.48
2023-02-13T12:07:29.487Z,6.41
2023-02-13T12:10:24.067Z,5.90
2023-02-13T12:12:55.188Z,6.62
2023-02-13T12:15:30.574Z,6.32
2023-02-13T12:18:03.458Z,6.74
2023-02-13T12:20:40.125Z,6.43
2023-02-13T12:23:18.768Z,6.05
2023-02-13T12:26:00.295Z,6.66
2023-02-13T12:28:42.433Z,7.04
2023-02-13T12:31:27.965Z,7.25
2023-02-13T12:34:06.700Z,6.91
2023-02-13T12:36:39.544Z,7.01
2023-02-13T12:39:09.591Z,7.05
2023-02-13T12:41:48.019Z,7.18
2023-02-13T12:44:43.947Z,7.19
2023-02-13T12:47:23.936Z,7.19
2023-02-13T12:50:18.098Z,7.41
2023-02-13T12:52:50.766Z,7.34
2023-02-13T12:55:53.951Z,7.51
2023-02-13T12:58:38.539Z,6.79
2023-02-13T13:01:17.786Z,6.92
2023-02-13T13:04:34.954Z,6.57
2023-02-13T13:07:15.066Z,6.30
2023-02-13T13:10:04.356Z,7.11
2023-02-13T13:13:06.449Z,7.15
2023-02-13T13:15:44.393Z,7.04
2023-02-13T13:18:22.847Z,6.90
2023-02-13T13:21:02.071Z,7.06
2023-02-13T13:23:37.870Z,7.56
2023-02-13T13:26:23.339Z,7.58
2023-02-13T13:28:54.696Z,7.54
2023-02-13T13:31:26.194Z,7.47
2023-02-13T13:33:56.286Z,6.84
2023-02-13T13:36:25.435Z,7.02
2023-02-13T13:38:52.124Z,7.10
2023-02-13T13:42:02.837Z,7.71
2023-02-13T13:45:00.885Z,7.51
2023-02-13T13:47:39.252Z,7.31
2023-02-13T13:50:17.478Z,7.63
2023-02-13T13:53:11.913Z,7.29
2023-02-13T13:55:50.298Z,7.59
2023-02-13T13:58:46.865Z,7.28
2023-02-13T14:01:16.562Z,7.42
2023-02-13T14:03:45.919Z,7.24
2023-02-13T14:06:15.802Z,7.41
2023-02-13T14:08:44.308Z,6.41
2023-02-13T14:11:35.649Z,7.00
2023-02-13T14:14:03.280Z,7.08
2023-02-13T14:16:57.845Z,6.84
2023-02-13T14:19:32.591Z,7.08
2023-02-13T14:22:20.771Z,7.00
2023-02-13T14:24:55.876Z,7.09
2023-02-13T14:27:25.206Z,7.11
2023-02-13T14:29:52.122Z,7.15
2023-02-13T14:32:30.877Z,6.93
2023-02-13T14:35:02.385Z,7.18
2023-02-13T14:37:40.131Z,6.87
2023-02-13T14:40:44.077Z,7.05
2023-02-13T14:43:22.578Z,6.66
2023-02-13T14:45:55.701Z,6.54
2023-02-13T14:48:33.609Z,6.04
2023-02-13T14:51:00.913Z,6.56
2023-02-13T14:53:34.460Z,6.75
2023-02-13T14:56:10.978Z,6.98
2023-02-13T14:58:58.533Z,6.57
2023-02-13T15:01:34.527Z,6.12
2023-02-13T15:04:12.971Z,6.78
2023-02-13T15:06:42.729Z,6.55
2023-02-13T15:09:39.023Z,6.20
2023-02-13T15:12:27.808Z,6.61
2023-02-13T15:14:54.644Z,6.10
2023-02-13T15:17:30.194Z,6.11
2023-02-13T15:20:04.965Z,6.69
2023-02-13T15:22:35.643Z,6.55
2023-02-13T15:25:03.086Z,6.70
2023-02-13T15:27:32.627Z,6.62
2023-02-13T15:30:05.070Z,6.13
2023-02-13T15:32:37.036Z,6.17
2023-02-13T15:35:22.528Z,6.52
2023-02-13T15:37:49.262Z,6.93
2023-02-13T15:40:22.356Z,6.96
2023-02-13T15:42:49.251Z,6.70
2023-02-13T15:45:18.436Z,6.72
2023-02-13T15:47:46.965Z,6.84
2023-02-13T15:50:35.987Z,6.80
2023-02-13T15:53:10.027Z,6.92
2023-02-13T15:55:38.525Z,6.86
2023-02-13T15:58:05.592Z,6.75
2023-02-13T16:00:39.277Z,6.85
2023-02-13T16:03:12.908Z,6.71
2023-02-13T16:05:41.552Z,6.67
2023-02-13T16:08:29.118Z,6.31
2023-02-13T16:11:17.302Z,5.89
2023-02-13T16:14:13.867Z,6.01
2023-02-13T16:16:54.698Z,6.00
2023-02-13T16:19:44.999Z,6.02
2023-02-13T16:22:33.282Z,5.56
2023-02-13T16:25:23.028Z,5.15
2023-02-13T16:27:52.578Z,5.58
2023-02-13T16:30:33.123Z,5.21
2023-02-13T16:33:16.894Z,5.61
2023-02-13T16:35:50.594Z,5.77
2023-02-13T16:38:41.094Z,5.82
2023-02-13T16:41:19.625Z,5.57
2023-02-13T16:44:03.286Z,4.85
2023-02-13T16:46:32.896Z,4.98
2023-02-13T16:48:59.579Z,4.93
2023-02-13T16:51:43.501Z,5.01
2023-02-13T16:54:36.308Z,5.01
2023-02-13T16:57:18.205Z,4.54
2023-02-13T16:59:47.387Z,4.83
2023-02-13T17:02:19.871Z,4.80
2023-02-13T17:04:49.596Z,5.29
2023-02-13T17:07:27.999Z,5.24
2023-02-13T17:10:03.453Z,5.35
2023-02-13T17:12:31.915Z,5.49
2023-02-13T17:14:59.857Z,4.98
2023-02-13T17:17:30.418Z,4.92
2023-02-13T17:19:57.772Z,4.66
2023-02-13T17:22:30.375Z,4.74
2023-02-13T17:24:58.578Z,4.96
2023-02-13T17:27:25.156Z,5.07
2023-02-13T17:29:52.084Z,5.36
2023-02-13T17:32:22.282Z,5.20
2023-02-13T17:34:49.656Z,5.17
2023-02-13T17:37:27.871Z,5.09
2023-02-13T17:39:55.601Z,4.73
2023-02-13T17:42:25.015Z,4.96
2023-02-13T17:44:53.990Z,5.01
2023-02-13T17:47:23.225Z,4.86
2023-02-13T17:49:50.565Z,5.18
2023-02-13T17:52:24.221Z,5.08
2023-02-13T17:54:51.479Z,4.85
2023-02-13T17:57:19.450Z,4.24
2023-02-13T17:59:47.585Z,3.66
2023-02-13T18:02:17.585Z,4.39
2023-02-13T18:04:45.308Z,4.75
2023-02-13T18:07:13.871Z,4.00
2023-02-13T18:09:40.850Z,4.06
2023-02-13T18:12:16.449Z,4.33
2023-02-13T18:14:43.163Z,4.01
2023-02-13T18:17:09.970Z,4.20
2023-02-13T18:19:37.455Z,4.14
2023-02-13T18:22:05.458Z,4.18
2023-02-13T18:24:33.089Z,3.59
2023-02-13T18:27:00.022Z,3.73
2023-02-13T18:29:26.981Z,3.82
2023-02-13T18:31:54.532Z,3.61
2023-02-13T18:34:22.416Z,3.18
2023-02-13T18:36:49.548Z,3.52
2023-02-13T18:39:16.798Z,3.40
2023-02-13T18:41:43.902Z,4.06
2023-02-13T18:44:17.334Z,4.04
2023-02-13T18:46:50.198Z,3.94
2023-02-13T18:49:16.985Z,4.43
2023-02-13T18:51:44.542Z,3.86
2023-02-13T18:54:11.536Z,3.78
2023-02-13T18:56:38.172Z,3.57
2023-02-13T18:59:05.069Z,4.01
2023-02-13T19:01:31.795Z,4.18
2023-02-13T19:03:58.450Z,4.07
2023-02-13T19:06:26.110Z,4.50
2023-02-13T19:08:52.777Z,4.70
2023-02-13T19:11:23.374Z,4.32
2023-02-13T19:13:55.109Z,3.98
2023-02-13T19:16:22.128Z,4.00
2023-02-13T19:18:54.639Z,4.05
2023-02-13T19:21:24.095Z,4.65
2023-02-13T19:23:51.690Z,4.75
2023-02-13T19:26:20.906Z,4.47
2023-02-13T19:28:48.187Z,4.46
2023-02-13T19:31:18.779Z,4.37
2023-02-13T19:33:46.260Z,3.40
2023-02-13T19:36:15.541Z,4.03
2023-02-13T19:38:44.985Z,4.22
2023-02-13T19:41:17.339Z,4.52
2023-02-13T19:43:50.975Z,4.59
2023-02-13T19:46:20.503Z,4.17
2023-02-13T19:48:47.260Z,4.37
2023-02-13T19:51:16.412Z,3.69
2023-02-13T19:53:43.375Z,4.27
2023-02-13T19:56:10.360Z,3.87
2023-02-13T19:58:38.409Z,3.83
2023-02-13T20:01:08.186Z,3.84
2023-02-13T20:03:35.029Z,3.97
2023-02-13T20:06:12.926Z,4.54
2023-02-13T20:08:42.563Z,4.29
2023-02-13T20:11:11.042Z,4.01
2023-02-13T20:13:38.477Z,4.21
2023-02-13T20:16:06.618Z,4.48
2023-02-13T20:18:35.395Z,4.81
2023-02-13T20:21:09.466Z,4.67
2023-02-13T20:23:36.166Z,4.52
2023-02-13T20:26:05.054Z,3.91
2023-02-13T20:28:31.834Z,3.88
2023-02-13T20:30:59.167Z,4.10
2023-02-13T20:33:27.175Z,3.62
2023-02-13T20:35:53.768Z,3.90
2023-02-13T20:38:20.354Z,4.27
2023-02-13T20:40:46.908Z,3.96
2023-02-13T20:43:13.486Z,4.34
2023-02-13T20:45:40.105Z,4.27
2023-02-13T20:48:06.794Z,4.75
2023-02-13T20:50:33.405Z,4.10
2023-02-13T20:53:00.052Z,4.26
2023-02-13T20:55:26.697Z,4.30
2023-02-13T20:57:53.350Z,4.18
2023-02-13T21:00:20.252Z,4.46
2023-02-13T21:02:46.912Z,4.03
2023-02-13T21:05:13.570Z,4.13
2023-02-13T21:07:40.253Z,4.46
2023-02-13T21:10:08.044Z,4.48
2023-02-13T21:12:35.020Z,4.33
2023-02-13T21:15:01.862Z,4.59
2023-02-13T21:17:28.449Z,4.25
2023-02-13T21:19:55.110Z,4.52
2023-02-13T21:22:21.721Z,4.66
2023-02-13T21:24:49.711Z,4.27
2023-02-13T21:27:16.446Z,3.57
2023-02-13T21:29:43.071Z,3.98
2023-02-13T21:32:09.810Z,4.04
2023-02-13T21:34:36.604Z,4.32
2023-02-13T21:37:03.334Z,4.77
2023-02-13T21:39:29.998Z,4.23
2023-02-13T21:41:56.688Z,4.42
2023-02-13T21:44:23.513Z,4.35
2023-02-13T21:46:50.594Z,3.88
2023-02-13T21:49:18.769Z,4.03
2023-02-13T21:51:46.042Z,4.44
2023-02-13T21:54:13.613Z,4.51
2023-02-13T21:56:42.001Z,4.48
2023-02-13T21:59:09.200Z,3.79
2023-02-13T22:01:37.786Z,4.31
2023-02-13T22:04:07.666Z,3.43
2023-02-13T22:06:36.638Z,3.76
2023-02-13T22:09:06.635Z,4.63
2023-02-13T22:11:34.495Z,3.89
2023-02-13T22:14:03.645Z,4.31
2023-02-13T22:16:31.790Z,4.45
2023-02-13T22:18:59.454Z,4.61
2023-02-13T22:21:28.720Z,4.57
2023-02-13T22:23:55.434Z,4.66
2023-02-13T22:26:27.461Z,4.25
2023-02-13T22:28:56.021Z,4.18
2023-02-13T22:31:25.419Z,3.84
2023-02-13T22:34:02.971Z,4.29
2023-02-13T22:36:31.697Z,4.48
2023-02-13T22:38:58.364Z,4.56
2023-02-13T22:41:26.757Z,4.45
2023-02-13T22:43:53.713Z,4.18
2023-02-13T22:46:33.335Z,4.10
2023-02-13T22:49:00.214Z,4.00
2023-02-13T22:51:34.230Z,4.37
2023-02-13T22:54:04.966Z,3.88
2023-02-13T22:56:33.701Z,3.40
2023-02-13T22:59:00.515Z,3.92
2023-02-13T23:01:28.973Z,4.30
2023-02-13T23:03:56.715Z,4.31
2023-02-13T23:06:24.830Z,4.07
2023-02-13T23:08:55.137Z,4.09
2023-02-13T23:11:43.380Z,4.18
2023-02-13T23:14:11.157Z,4.07
2023-02-13T23:16:58.204Z,4.10
2023-02-13T23:19:25.588Z,4.39
2023-02-13T23:21:52.289Z,4.96
2023-02-13T23:24:18.950Z,4.29
2023-02-13T23:26:45.633Z,4.39
2023-02-13T23:29:12.208Z,4.04
2023-02-13T23:31:38.925Z,4.28
2023-02-13T23:34:05.686Z,4.63
2023-02-13T23:36:32.374Z,4.28
2023-02-13T23:38:58.956Z,3.44
2023-02-13T23:41:25.589Z,4.18
2023-02-13T23:43:52.135Z,3.87
2023-02-13T23:46:18.815Z,4.32
2023-02-13T23:48:46.160Z,3.93
2023-02-13T23:51:13.093Z,4.07
2023-02-13T23:53:39.878Z,4.25
2023-02-13T23:56:10.269Z,4.28
2023-02-13T23:58:36.835Z,4.15
